createdAt,value
2023-05-29T00:00:34.277Z,1.88
2023-05-29T00:03:02.887Z,2.78
2023-05-29T00:05:29.635Z,3.17
2023-05-29T00:07:56.749Z,1.73
2023-05-29T00:10:23.572Z,4.28
2023-05-29T00:12:50.150Z,3.35
2023-05-29T00:15:16.852Z,2.55
2023-05-29T00:17:44.402Z,2.70
2023-05-29T00:20:13.130Z,3.05
2023-05-29T00:26:27.459Z,2.42
2023-05-29T00:28:54.205Z,3.10
2023-05-29T00:31:21.369Z,1.63
2023-05-29T00:33:48.053Z,3.30
2023-05-29T00:36:14.668Z,2.30
2023-05-29T00:38:41.509Z,2.35
2023-05-29T00:41:08.185Z,3.53
2023-05-29T00:43:36.023Z,2.42
2023-05-29T00:46:02.583Z,3.20
2023-05-29T00:48:29.216Z,2.53
2023-05-29T00:50:56.325Z,1.90
2023-05-29T00:53:24.159Z,5.13
2023-05-29T00:55:51.735Z,3.00
2023-05-29T00:58:18.416Z,2.50
2023-05-29T01:00:46.033Z,3.22
2023-05-29T01:03:15.980Z,2.63
2023-05-29T01:05:42.756Z,1.98
2023-05-29T01:08:10.172Z,2.25
2023-05-29T01:10:36.902Z,2.88
2023-05-29T01:13:07.292Z,2.60
2023-05-29T01:18:18.342Z,2.47
2023-05-29T01:21:06.497Z,2.72
2023-05-29T01:23:58.015Z,3.25
2023-05-29T01:26:46.553Z,1.80
2023-05-29T01:29:16.624Z,2.92
2023-05-29T01:31:44.836Z,3.38
2023-05-29T01:34:11.580Z,2.38
2023-05-29T01:36:38.504Z,3.15
2023-05-29T01:39:06.598Z,2.63
2023-05-29T01:41:34.265Z,2.80
2023-05-29T01:44:04.401Z,4.07
2023-05-29T01:46:31.020Z,1.70
2023-05-29T01:48:57.729Z,2.45
2023-05-29T01:51:24.582Z,2.95
2023-05-29T01:53:51.181Z,2.53
2023-05-29T01:56:18.173Z,2.55
2023-05-29T01:58:45.530Z,2.85
2023-05-29T02:01:12.302Z,2.55
2023-05-29T02:03:38.950Z,2.13
2023-05-29T02:06:05.698Z,2.50
2023-05-29T02:08:32.270Z,2.50
2023-05-29T02:10:58.848Z,3.03
2023-05-29T02:13:25.580Z,2.92
2023-05-29T02:15:52.116Z,3.85
2023-05-29T02:18:18.692Z,2.83
2023-05-29T02:20:45.794Z,2.70
2023-05-29T02:23:13.008Z,2.38
2023-05-29T02:25:39.923Z,1.95
2023-05-29T02:28:06.631Z,3.05
2023-05-29T02:30:33.340Z,2.33
2023-05-29T02:32:59.993Z,2.40
2023-05-29T02:35:27.064Z,3.22
2023-05-29T02:37:54.290Z,2.38
2023-05-29T02:40:21.214Z,2.35
2023-05-29T02:42:48.271Z,3.08
2023-05-29T02:45:14.809Z,3.17
2023-05-29T02:47:41.424Z,2.33
2023-05-29T02:50:09.558Z,1.98
2023-05-29T02:52:37.767Z,3.38
2023-05-29T02:55:06.794Z,2.22
2023-05-29T02:57:33.840Z,2.38
2023-05-29T03:00:01.885Z,3.08
2023-05-29T03:02:28.720Z,2.80
2023-05-29T03:04:55.656Z,2.42
2023-05-29T03:07:22.324Z,3.28
2023-05-29T03:09:48.853Z,2.88
2023-05-29T03:12:15.549Z,3.17
2023-05-29T03:14:42.208Z,1.67
2023-05-29T03:17:08.769Z,2.72
2023-05-29T03:19:35.431Z,1.90
2023-05-29T03:22:02.124Z,2.72
2023-05-29T03:24:28.663Z,2.72
2023-05-29T03:26:55.791Z,2.92
2023-05-29T03:29:22.555Z,4.63
2023-05-29T03:31:49.521Z,2.78
2023-05-29T03:34:16.428Z,2.25
2023-05-29T03:36:43.730Z,2.00
2023-05-29T03:39:10.346Z,4.10
2023-05-29T03:41:36.900Z,3.25
2023-05-29T03:44:03.616Z,2.25
2023-05-29T03:46:31.286Z,2.72
2023-05-29T03:48:58.046Z,4.00
2023-05-29T03:51:24.714Z,2.78
2023-05-29T03:53:51.206Z,1.98
2023-05-29T03:56:17.781Z,2.20
2023-05-29T03:58:44.709Z,1.80
2023-05-29T04:01:11.432Z,3.00
2023-05-29T04:03:39.051Z,2.50
2023-05-29T04:06:06.016Z,2.92
2023-05-29T04:08:32.638Z,3.28
2023-05-29T04:10:59.378Z,2.08
2023-05-29T04:13:25.937Z,2.28
2023-05-29T04:15:53.861Z,1.98
2023-05-29T04:18:21.526Z,2.67
2023-05-29T04:20:48.465Z,1.73
2023-05-29T04:23:15.534Z,2.72
2023-05-29T04:25:42.141Z,3.33
2023-05-29T04:28:08.724Z,2.50
2023-05-29T04:30:35.567Z,2.85
2023-05-29T04:33:02.285Z,2.95
2023-05-29T04:35:31.734Z,2.97
2023-05-29T04:37:59.063Z,3.20
2023-05-29T04:40:25.747Z,2.97
2023-05-29T04:42:53.721Z,3.53
2023-05-29T04:45:24.577Z,4.20
2023-05-29T04:47:53.829Z,2.63
2023-05-29T04:50:20.623Z,3.85
2023-05-29T04:52:47.158Z,2.63
2023-05-29T04:55:13.750Z,2.65
2023-05-29T04:57:41.729Z,3.53
2023-05-29T05:00:14.929Z,3.47
2023-05-29T05:02:44.178Z,2.22
2023-05-29T05:05:11.736Z,1.60
2023-05-29T05:07:38.516Z,3.15
2023-05-29T05:10:05.700Z,2.25
2023-05-29T05:12:32.394Z,3.47
2023-05-29T05:14:58.985Z,3.00
2023-05-29T05:17:25.754Z,2.17
2023-05-29T05:19:55.792Z,2.35
2023-05-29T05:22:22.387Z,2.30
2023-05-29T05:24:48.977Z,3.50
2023-05-29T05:27:15.581Z,3.47
2023-05-29T05:29:42.369Z,3.63
2023-05-29T05:32:08.992Z,3.13
2023-05-29T05:34:35.912Z,2.28
2023-05-29T05:37:03.830Z,2.78
2023-05-29T05:39:30.793Z,1.92
2023-05-29T05:41:57.404Z,2.45
2023-05-29T05:44:24.014Z,3.10
2023-05-29T05:46:50.552Z,2.13
2023-05-29T05:49:17.142Z,2.50
2023-05-29T05:51:43.840Z,2.15
2023-05-29T05:54:10.568Z,3.15
2023-05-29T05:56:37.107Z,1.83
2023-05-29T05:59:03.754Z,2.40
2023-05-29T06:01:30.330Z,2.90
2023-05-29T06:03:56.981Z,3.22
2023-05-29T06:06:23.608Z,2.45
2023-05-29T06:08:50.227Z,3.15
2023-05-29T06:11:16.849Z,2.70
2023-05-29T06:13:43.650Z,2.53
2023-05-29T06:16:10.315Z,3.33
2023-05-29T06:18:36.891Z,2.28
2023-05-29T06:21:04.006Z,2.10
2023-05-29T06:23:30.966Z,2.40
2023-05-29T06:25:57.738Z,2.22
2023-05-29T06:28:24.298Z,2.95
2023-05-29T06:30:50.946Z,2.83
2023-05-29T06:33:17.561Z,2.95
2023-05-29T06:35:44.118Z,2.65
2023-05-29T06:38:10.753Z,1.88
2023-05-29T06:40:37.298Z,3.42
2023-05-29T06:43:03.997Z,3.03
2023-05-29T06:45:30.624Z,4.45
2023-05-29T06:47:57.196Z,5.97
2023-05-29T06:50:23.864Z,2.08
2023-05-29T06:52:50.464Z,3.47
2023-05-29T06:55:17.068Z,4.10
2023-05-29T06:57:43.613Z,4.07
2023-05-29T07:00:12.184Z,3.17
2023-05-29T07:02:39.192Z,1.88
2023-05-29T07:05:06.103Z,4.38
2023-05-29T07:07:32.923Z,2.47
2023-05-29T07:09:59.521Z,3.85
2023-05-29T07:12:26.295Z,5.03
2023-05-29T07:14:52.840Z,5.30
2023-05-29T07:17:19.641Z,4.93
2023-05-29T07:19:46.373Z,4.53
2023-05-29T07:22:13.038Z,4.60
2023-05-29T07:24:39.690Z,5.38
2023-05-29T07:27:06.736Z,3.95
2023-05-29T07:29:33.752Z,5.40
2023-05-29T07:32:00.441Z,4.65
2023-05-29T07:34:27.013Z,2.95
2023-05-29T07:37:07.723Z,4.30
2023-05-29T07:39:35.951Z,4.22
2023-05-29T07:42:03.751Z,3.97
2023-05-29T07:44:30.804Z,4.35
2023-05-29T07:46:57.591Z,4.13
2023-05-29T07:49:24.722Z,3.45
2023-05-29T07:51:51.407Z,5.45
2023-05-29T07:54:21.766Z,4.30
2023-05-29T07:59:14.908Z,3.88
2023-05-29T08:01:41.585Z,5.18
2023-05-29T08:04:08.226Z,3.67
2023-05-29T08:06:35.393Z,4.05
2023-05-29T08:09:02.748Z,4.70
2023-05-29T08:11:30.172Z,4.43
2023-05-29T08:13:56.843Z,4.72
2023-05-29T08:16:24.153Z,3.85
2023-05-29T08:18:50.914Z,4.50
2023-05-29T08:21:17.700Z,1.95
2023-05-29T08:23:45.295Z,3.63
2023-05-29T08:26:11.875Z,3.20
2023-05-29T08:28:40.096Z,3.28
2023-05-29T08:31:08.257Z,3.42
2023-05-29T08:33:34.930Z,4.10
2023-05-29T08:36:01.854Z,2.33
2023-05-29T08:38:28.663Z,3.28
2023-05-29T08:40:58.191Z,2.97
2023-05-29T08:43:26.802Z,2.70
2023-05-29T08:46:00.234Z,4.63
2023-05-29T08:48:28.826Z,2.42
2023-05-29T08:50:57.265Z,4.03
2023-05-29T08:53:24.825Z,2.90
2023-05-29T08:55:53.602Z,2.95
2023-05-29T08:58:24.624Z,4.55
2023-05-29T09:00:52.491Z,3.03
2023-05-29T09:03:21.306Z,2.22
2023-05-29T09:05:49.709Z,3.95
2023-05-29T09:08:17.509Z,2.88
2023-05-29T09:10:44.731Z,2.83
2023-05-29T09:13:12.633Z,2.92
2023-05-29T09:15:44.448Z,3.17
2023-05-29T09:18:11.974Z,2.85
2023-05-29T09:20:38.723Z,3.65
2023-05-29T09:23:09.945Z,4.70
2023-05-29T09:25:42.461Z,3.47
2023-05-29T09:28:10.228Z,2.47
2023-05-29T09:30:48.235Z,3.55
2023-05-29T09:33:16.380Z,2.63
2023-05-29T09:35:48.518Z,4.03
2023-05-29T09:38:33.449Z,4.35
2023-05-29T09:41:06.801Z,9.00
2023-05-29T09:43:34.389Z,4.55
2023-05-29T09:46:02.627Z,6.88
2023-05-29T09:48:30.684Z,8.85
2023-05-29T09:50:59.286Z,9.40
2023-05-29T09:53:27.223Z,8.85
2023-05-29T09:56:00.329Z,7.28
2023-05-29T09:58:27.511Z,6.63
2023-05-29T10:00:54.587Z,10.43
2023-05-29T10:03:25.487Z,8.95
2023-05-29T10:05:54.516Z,7.80
2023-05-29T10:08:21.740Z,5.28
2023-05-29T10:11:00.242Z,7.70
2023-05-29T10:13:32.434Z,9.27
2023-05-29T10:16:02.018Z,5.90
2023-05-29T10:18:35.204Z,7.30
2023-05-29T10:21:03.281Z,4.78
2023-05-29T10:23:31.059Z,6.78
2023-05-29T10:26:16.667Z,5.03
2023-05-29T10:28:47.857Z,3.80
2023-05-29T10:31:34.113Z,4.85
2023-05-29T10:34:24.614Z,4.15
2023-05-29T10:39:24.138Z,4.03
2023-05-29T10:41:51.426Z,5.35
2023-05-29T10:44:33.735Z,3.03
2023-05-29T10:47:00.421Z,4.28
2023-05-29T10:49:27.402Z,3.50
2023-05-29T10:51:54.081Z,3.38
2023-05-29T10:54:25.276Z,2.80
2023-05-29T10:57:02.202Z,2.60
2023-05-29T10:59:29.964Z,4.25
2023-05-29T11:01:58.507Z,4.22
2023-05-29T11:04:27.458Z,3.17
2023-05-29T11:06:54.082Z,4.63
2023-05-29T11:09:38.511Z,4.13
2023-05-29T11:12:34.521Z,3.08
2023-05-29T11:15:11.152Z,3.70
2023-05-29T11:17:40.763Z,5.20
2023-05-29T11:20:09.564Z,4.00
2023-05-29T11:23:01.837Z,3.60
2023-05-29T11:25:29.376Z,3.47
2023-05-29T11:27:56.101Z,3.47
2023-05-29T11:30:23.007Z,3.70
2023-05-29T11:32:51.194Z,4.25
2023-05-29T11:35:23.122Z,3.13
2023-05-29T11:37:51.346Z,4.10
2023-05-29T11:40:18.077Z,5.30
2023-05-29T11:42:45.795Z,4.75
2023-05-29T11:45:21.281Z,4.30
2023-05-29T11:47:55.828Z,4.55
2023-05-29T11:50:29.469Z,5.18
2023-05-29T11:52:57.820Z,4.95
2023-05-29T11:55:25.973Z,3.58
2023-05-29T11:57:57.966Z,3.95
2023-05-29T12:00:25.227Z,4.53
2023-05-29T12:02:52.934Z,3.05
2023-05-29T12:05:20.581Z,4.80
2023-05-29T12:07:51.424Z,3.55
2023-05-29T12:10:19.739Z,3.95
2023-05-29T12:12:49.987Z,5.10
2023-05-29T12:15:17.702Z,3.88
2023-05-29T12:17:45.180Z,3.17
2023-05-29T12:20:13.747Z,4.70
2023-05-29T12:22:42.897Z,3.10
2023-05-29T12:25:14.864Z,3.20
2023-05-29T12:27:47.352Z,3.50
2023-05-29T12:30:24.179Z,4.57
2023-05-29T12:32:55.696Z,4.60
2023-05-29T12:35:27.170Z,4.05
2023-05-29T12:38:00.871Z,4.10
2023-05-29T12:40:29.589Z,3.78
2023-05-29T12:43:06.383Z,3.17
2023-05-29T12:45:34.407Z,3.30
2023-05-29T12:48:06.612Z,5.00
2023-05-29T12:50:40.782Z,4.25
2023-05-29T12:53:09.157Z,4.60
2023-05-29T12:55:38.180Z,4.50
2023-05-29T12:58:08.445Z,5.38
2023-05-29T13:00:36.525Z,3.70
2023-05-29T13:03:03.703Z,3.90
2023-05-29T13:05:30.421Z,6.80
2023-05-29T13:07:58.042Z,3.03
2023-05-29T13:10:26.065Z,2.38
2023-05-29T13:12:55.952Z,2.60
2023-05-29T13:15:24.229Z,2.97
2023-05-29T13:17:51.810Z,4.38
2023-05-29T13:20:19.194Z,3.42
2023-05-29T13:22:47.525Z,4.10
2023-05-29T13:25:17.078Z,3.88
2023-05-29T13:27:46.753Z,4.60
2023-05-29T13:30:14.703Z,2.47
2023-05-29T13:32:42.228Z,3.72
2023-05-29T13:35:09.889Z,4.88
2023-05-29T13:37:37.871Z,3.72
2023-05-29T13:40:06.047Z,2.80
2023-05-29T13:42:32.977Z,3.55
2023-05-29T13:44:59.557Z,4.95
2023-05-29T13:47:29.760Z,2.95
2023-05-29T13:52:22.997Z,4.82
2023-05-29T13:54:49.740Z,4.05
2023-05-29T13:57:16.321Z,2.60
2023-05-29T13:59:42.899Z,3.63
2023-05-29T14:02:09.696Z,3.80
2023-05-29T14:04:36.449Z,3.58
2023-05-29T14:07:03.150Z,4.85
2023-05-29T14:09:29.752Z,4.47
2023-05-29T14:11:58.266Z,4.30
2023-05-29T14:14:26.127Z,2.75
2023-05-29T14:16:53.397Z,5.05
2023-05-29T14:19:20.373Z,3.10
2023-05-29T14:21:46.934Z,3.17
2023-05-29T14:24:14.502Z,3.88
2023-05-29T14:26:42.588Z,3.05
2023-05-29T14:29:14.246Z,4.57
2023-05-29T14:31:45.100Z,4.97
2023-05-29T14:34:12.956Z,5.93
2023-05-29T14:36:40.916Z,3.85
2023-05-29T14:39:08.088Z,3.88
2023-05-29T14:41:36.392Z,3.40
2023-05-29T14:44:03.455Z,5.22
2023-05-29T14:46:32.894Z,4.65
2023-05-29T14:49:01.242Z,4.93
2023-05-29T14:51:28.600Z,5.25
2023-05-29T14:53:55.759Z,7.13
2023-05-29T14:56:22.407Z,5.18
2023-05-29T14:58:49.454Z,5.63
2023-05-29T15:01:19.175Z,5.50
2023-05-29T15:03:46.492Z,7.93
2023-05-29T15:06:13.815Z,8.55
2023-05-29T15:08:43.210Z,11.13
2023-05-29T15:11:10.890Z,6.53
2023-05-29T15:13:37.499Z,9.55
2023-05-29T15:16:05.090Z,9.77
2023-05-29T15:18:32.237Z,12.32
2023-05-29T15:20:59.147Z,10.63
2023-05-29T15:23:28.463Z,8.55
2023-05-29T15:25:55.298Z,9.18
2023-05-29T15:28:22.560Z,9.77
2023-05-29T15:30:49.633Z,9.57
2023-05-29T15:33:16.406Z,7.97
2023-05-29T15:35:43.747Z,8.98
2023-05-29T15:38:13.611Z,9.07
2023-05-29T15:40:41.574Z,9.57
2023-05-29T15:43:08.391Z,8.80
2023-05-29T15:45:34.984Z,9.60
2023-05-29T15:48:01.620Z,7.50
2023-05-29T15:50:28.450Z,8.73
2023-05-29T15:52:56.520Z,7.97
2023-05-29T15:55:24.444Z,6.95
2023-05-29T15:57:51.438Z,7.80
2023-05-29T16:00:18.729Z,8.57
2023-05-29T16:02:45.644Z,7.60
2023-05-29T16:05:12.627Z,6.93
2023-05-29T16:07:39.861Z,8.02
2023-05-29T16:10:07.221Z,6.55
2023-05-29T16:12:34.207Z,6.70
2023-05-29T16:15:01.174Z,6.60
2023-05-29T16:17:28.914Z,6.72
2023-05-29T16:19:57.201Z,7.45
2023-05-29T16:22:39.829Z,6.22
2023-05-29T16:25:07.985Z,7.05
2023-05-29T16:27:34.783Z,6.45
2023-05-29T16:30:01.758Z,7.90
2023-05-29T16:32:29.151Z,6.47
2023-05-29T16:34:55.965Z,6.28
2023-05-29T16:37:22.746Z,7.00
2023-05-29T16:39:49.322Z,6.25
2023-05-29T16:42:16.361Z,7.15
2023-05-29T16:44:44.010Z,6.85
2023-05-29T16:47:10.565Z,6.53
2023-05-29T16:49:37.143Z,6.57
2023-05-29T16:52:04.310Z,4.47
2023-05-29T16:54:31.975Z,6.55
2023-05-29T16:56:58.601Z,7.07
2023-05-29T16:59:25.269Z,6.65
2023-05-29T17:01:51.904Z,4.70
2023-05-29T17:04:19.184Z,5.90
2023-05-29T17:06:46.834Z,4.80
2023-05-29T17:09:14.331Z,4.95
2023-05-29T17:11:41.174Z,5.13
2023-05-29T17:14:07.764Z,5.30
2023-05-29T17:16:34.350Z,5.70
2023-05-29T17:19:00.984Z,5.00
2023-05-29T17:21:27.558Z,4.20
2023-05-29T17:23:56.024Z,4.60
2023-05-29T17:26:25.987Z,3.80
2023-05-29T17:28:52.610Z,4.43
2023-05-29T17:31:19.252Z,5.47
2023-05-29T17:33:46.263Z,4.03
2023-05-29T17:36:13.512Z,4.32
2023-05-29T17:38:40.404Z,4.88
2023-05-29T17:41:07.407Z,3.75
2023-05-29T17:43:34.234Z,4.47
2023-05-29T17:46:01.483Z,5.78
2023-05-29T17:48:28.106Z,5.47
2023-05-29T17:50:54.678Z,4.10
2023-05-29T17:53:21.729Z,4.03
2023-05-29T17:55:48.438Z,3.63
2023-05-29T17:58:15.034Z,3.35
2023-05-29T18:00:41.611Z,3.45
2023-05-29T18:03:08.556Z,3.67
2023-05-29T18:05:35.138Z,4.28
2023-05-29T18:08:01.725Z,4.68
2023-05-29T18:10:29.560Z,3.58
2023-05-29T18:12:56.226Z,4.53
2023-05-29T18:15:23.255Z,4.82
2023-05-29T18:17:49.894Z,4.32
2023-05-29T18:20:19.504Z,4.13
2023-05-29T18:22:46.424Z,4.25
2023-05-29T18:25:15.464Z,3.38
2023-05-29T18:27:42.064Z,4.18
2023-05-29T18:30:09.299Z,3.50
2023-05-29T18:32:38.096Z,2.60
2023-05-29T18:35:05.341Z,4.13
2023-05-29T18:37:32.086Z,4.95
2023-05-29T18:39:58.838Z,3.17
2023-05-29T18:42:27.028Z,3.63
2023-05-29T18:44:56.225Z,5.53
2023-05-29T18:47:22.844Z,3.10
2023-05-29T18:49:49.552Z,3.60
2023-05-29T18:52:16.206Z,3.45
2023-05-29T18:54:42.795Z,2.85
2023-05-29T18:57:09.542Z,4.28
2023-05-29T18:59:36.223Z,3.88
2023-05-29T19:02:02.917Z,3.10
2023-05-29T19:04:30.022Z,3.13
2023-05-29T19:06:57.864Z,3.40
2023-05-29T19:09:25.690Z,3.15
2023-05-29T19:11:52.226Z,3.53
2023-05-29T19:14:18.815Z,6.32
2023-05-29T19:16:45.485Z,5.22
2023-05-29T19:19:12.055Z,3.97
2023-05-29T19:21:39.026Z,3.70
2023-05-29T19:24:05.903Z,3.22
2023-05-29T19:26:35.398Z,3.20
2023-05-29T19:29:02.562Z,2.70
2023-05-29T19:31:29.801Z,3.45
2023-05-29T19:33:57.001Z,2.85
2023-05-29T19:36:25.092Z,2.20
2023-05-29T19:38:52.535Z,4.25
2023-05-29T19:41:20.390Z,3.17
2023-05-29T19:43:47.004Z,3.30
2023-05-29T19:46:13.684Z,3.33
2023-05-29T19:48:40.971Z,3.20
2023-05-29T19:51:08.286Z,2.05
2023-05-29T19:53:35.456Z,3.85
2023-05-29T19:56:02.098Z,4.78
2023-05-29T19:58:28.714Z,3.22
2023-05-29T20:00:57.064Z,2.60
2023-05-29T20:03:23.936Z,2.90
2023-05-29T20:05:51.127Z,2.45
2023-05-29T20:08:17.861Z,2.55
2023-05-29T20:10:47.896Z,3.08
2023-05-29T20:13:18.920Z,2.97
2023-05-29T20:15:45.625Z,3.42
2023-05-29T20:18:12.290Z,2.45
2023-05-29T20:20:39.115Z,3.13
2023-05-29T20:23:05.690Z,3.05
2023-05-29T20:25:32.484Z,6.57
2023-05-29T20:27:59.143Z,2.95
2023-05-29T20:30:25.833Z,3.97
2023-05-29T20:32:52.435Z,6.85
2023-05-29T20:35:21.973Z,3.92
2023-05-29T20:37:53.093Z,5.93
2023-05-29T20:40:20.906Z,7.63
2023-05-29T20:42:48.040Z,4.25
2023-05-29T20:45:15.654Z,2.85
2023-05-29T20:47:45.295Z,4.43
2023-05-29T20:50:12.521Z,1.92
2023-05-29T20:52:39.291Z,3.25
2023-05-29T20:55:06.586Z,3.72
2023-05-29T20:57:33.334Z,7.45
2023-05-29T21:00:00.015Z,4.43
2023-05-29T21:02:27.106Z,2.33
2023-05-29T21:04:53.809Z,4.57
2023-05-29T21:07:20.592Z,2.22
2023-05-29T21:09:47.136Z,3.95
2023-05-29T21:12:13.854Z,2.35
2023-05-29T21:14:40.428Z,3.47
2023-05-29T21:17:07.148Z,2.60
2023-05-29T21:19:33.744Z,3.47
2023-05-29T21:22:01.075Z,2.63
2023-05-29T21:24:27.715Z,4.20
2023-05-29T21:26:54.279Z,2.50
2023-05-29T21:29:20.996Z,4.10
2023-05-29T21:31:48.291Z,3.10
2023-05-29T21:34:15.123Z,3.17
2023-05-29T21:36:41.822Z,2.60
2023-05-29T21:39:08.691Z,2.53
2023-05-29T21:41:35.547Z,2.85
2023-05-29T21:44:02.441Z,4.70
2023-05-29T21:46:29.023Z,2.13
2023-05-29T21:48:55.801Z,3.15
2023-05-29T21:51:23.132Z,3.17
2023-05-29T21:53:49.690Z,2.53
2023-05-29T21:56:16.479Z,2.28
2023-05-29T21:58:43.114Z,2.80
2023-05-29T22:01:10.328Z,3.03
2023-05-29T22:03:36.977Z,1.65
2023-05-29T22:06:03.667Z,2.42
2023-05-29T22:08:44.361Z,2.58
2023-05-29T22:11:11.393Z,2.67
2023-05-29T22:13:38.194Z,1.90
2023-05-29T22:16:05.405Z,2.38
2023-05-29T22:18:33.820Z,3.70
2023-05-29T22:21:04.872Z,2.78
2023-05-29T22:23:32.527Z,1.88
2023-05-29T22:26:01.701Z,2.03
2023-05-29T22:28:29.213Z,2.70
2023-05-29T22:30:57.124Z,1.67
2023-05-29T22:33:24.420Z,1.48
2023-05-29T22:35:51.766Z,2.17
2023-05-29T22:38:19.527Z,1.23
2023-05-29T22:40:46.136Z,3.15
2023-05-29T22:43:13.491Z,1.77
2023-05-29T22:45:40.095Z,2.78
2023-05-29T22:48:06.824Z,2.78
2023-05-29T22:50:33.518Z,2.65
2023-05-29T22:53:01.122Z,3.50
2023-05-29T22:55:28.347Z,3.05
2023-05-29T22:57:56.617Z,2.50
2023-05-29T23:00:25.077Z,2.75
2023-05-29T23:02:51.791Z,1.67
2023-05-29T23:05:19.360Z,2.60
2023-05-29T23:07:45.998Z,2.15
2023-05-29T23:10:12.587Z,1.55
2023-05-29T23:12:39.367Z,3.15
2023-05-29T23:15:07.651Z,2.33
2023-05-29T23:17:34.250Z,2.75
2023-05-29T23:20:01.685Z,3.03
2023-05-29T23:22:28.534Z,2.63
2023-05-29T23:24:55.100Z,2.78
2023-05-29T23:27:21.782Z,2.05
2023-05-29T23:29:48.534Z,2.58
2023-05-29T23:32:15.253Z,2.38
2023-05-29T23:34:42.063Z,2.40
2023-05-29T23:37:08.654Z,3.35
2023-05-29T23:39:35.164Z,1.95
2023-05-29T23:42:02.077Z,2.90
2023-05-29T23:44:28.821Z,2.53
2023-05-29T23:46:55.657Z,1.63
2023-05-29T23:49:23.155Z,3.05
2023-05-29T23:51:49.875Z,1.88
2023-05-29T23:54:16.653Z,1.38
2023-05-29T23:56:43.305Z,2.13
2023-05-29T23:59:10.802Z,3.95
